Time;durP1;ratioP1;P1;durP2;ratioP2;P2;SDS_P1;SDS_P2;PMS_P1;PMS_P2;Temp;Humidity;BMP_temperature;BMP_pressure;BME280_temperature;BME280_humidity;BME280_pressure;Samples;Min_cycle;Max_cycle;Signal;HPM_P1;HPM_P2
2022/06/23 03:49:29;;;;;;;;;;;;;;;22.87;72.07;96643.53;4253568;27;10367;-68
2022/06/23 03:51:36;;;;;;;;;;;;;;;23.10;71.42;96648.28;4246188;27;5654;-69
2022/06/23 03:53:46;;;;;;;;;;;;;;;23.29;71.00;96643.06;4241020;27;5919;-69
2022/06/23 03:55:53;;;;;;;;;;;;;;;23.46;70.47;96640.03;4241729;27;7755;-70
2022/06/23 03:57:59;;;;;;;;;;;;;;;23.53;70.49;96640.50;4259992;27;5616;-68
2022/06/23 04:00:18;;;;;;;;;;;;;;;23.66;69.91;96634.50;4239125;27;5730;-70
2022/06/23 04:02:28;;;;;;;;;;;;;;;23.76;69.71;96645.25;4240005;27;5709;-71
2022/06/23 04:04:46;;;;;;;;;;;;;;;23.85;69.26;96641.97;4237776;27;5717;-70
2022/06/23 04:06:50;;;;;;;;;;;;;;;23.91;68.98;96651.66;4248941;27;5677;-70
2022/06/23 04:09:00;;;;;;;;;;;;;;;23.94;68.84;96648.38;4247643;27;5650;-69
2022/06/23 04:13:31;;;;;;;;;;;;;;;24.04;68.44;96651.81;4247728;27;5638;-71
2022/06/23 04:15:40;;;;;;;;;;;;;;;24.07;68.41;96648.53;4248469;27;5092;-71
2022/06/23 04:17:47;;;;;;;;;;;;;;;24.08;68.03;96652.84;4248715;27;5662;-71
2022/06/23 04:19:56;;;;;;;;;;;;;;;24.12;68.08;96658.47;4248788;27;5669;-71
2022/06/23 04:22:05;;;;;;;;;;;;;;;24.14;67.87;96661.72;4247590;27;5737;-71
2022/06/23 04:24:16;;;;;;;;;;;;;;;24.18;67.82;96661.94;4242826;27;5695;-71
2022/06/23 04:26:22;;;;;;;;;;;;;;;24.18;67.85;96668.16;4231820;28;5667;-70
2022/06/23 04:28:28;;;;;;;;;;;;;;;24.20;67.74;96660.56;4231764;28;5754;-70
2022/06/23 04:30:35;;;;;;;;;;;;;;;24.23;67.80;96664.59;4232599;27;5674;-70
2022/06/23 04:32:38;;;;;;;;;;;;;;;24.24;67.55;96672.44;4246005;27;5657;-70
2022/06/23 04:34:51;;;;;;;;;;;;;;;24.24;67.37;96672.44;4248536;27;5642;-70
2022/06/23 04:36:56;;;;;;;;;;;;;;;24.29;67.32;96675.09;4247568;27;5797;-70
2022/06/23 04:39:04;;;;;;;;;;;;;;;24.36;67.29;96672.91;4245357;27;5678;-70
2022/06/23 04:41:13;;;;;;;;;;;;;;;24.38;66.76;96673.41;4247815;27;5821;-70
2022/06/23 04:43:19;;;;;;;;;;;;;;;24.41;66.70;96669.34;4249514;27;5723;-69
2022/06/23 04:45:33;;;;;;;;;;;;;;;24.44;66.76;96676.06;4250625;27;5748;-69
2022/06/23 04:47:36;;;;;;;;;;;;;;;24.44;66.20;96670.66;4247398;27;5092;-72
2022/06/23 04:49:43;;;;;;;;;;;;;;;24.44;66.04;96673.34;4241483;27;5665;-72
2022/06/23 04:51:52;;;;;;;;;;;;;;;24.39;66.30;96675.03;4238937;27;5641;-72
2022/06/23 04:54:03;;;;;;;;;;;;;;;24.37;66.41;96677.22;4238345;27;5833;-72
2022/06/23 04:56:19;;;;;;;;;;;;;;;24.35;66.05;96673.16;4237708;28;5650;-72
2022/06/23 04:58:24;;;;;;;;;;;;;;;24.31;65.77;96662.13;4237244;27;5670;-70
2022/06/23 05:00:31;;;;;;;;;;;;;;;24.27;66.30;96666.47;4233523;28;5801;-67
2022/06/23 05:02:40;;;;;;;;;;;;;;;24.22;66.10;96662.97;4237629;28;5868;-67
2022/06/23 05:04:46;;;;;;;;;;;;;;;24.22;65.91;96652.97;4233195;28;5108;-67
2022/06/23 05:06:52;;;;;;;;;;;;;;;24.25;65.37;96652.44;4221443;27;5686;-67
2022/06/23 05:08:59;;;;;;;;;;;;;;;24.29;65.57;96648.06;4236914;28;5678;-67
2022/06/23 05:11:09;;;;;;;;;;;;;;;24.33;65.35;96649.13;4235030;27;5751;-67
2022/06/23 05:13:17;;;;;;;;;;;;;;;24.35;64.83;96646.97;4230186;28;5682;-67
2022/06/23 05:15:25;;;;;;;;;;;;;;;24.36;64.75;96647.78;4236110;28;5662;-68
2022/06/23 05:17:32;;;;;;;;;;;;;;;24.37;65.00;96649.38;4235546;28;5657;-67
2022/06/23 05:19:38;;;;;;;;;;;;;;;24.42;64.80;96651.22;4227902;28;5659;-67
2022/06/23 05:21:48;;;;;;;;;;;;;;;24.47;64.54;96659.31;4220526;28;5738;-67
2022/06/23 05:23:54;;;;;;;;;;;;;;;24.56;64.27;96652.16;4232682;27;5878;-67
2022/06/23 05:26:07;;;;;;;;;;;;;;;24.66;64.24;96642.06;4233878;27;6359;-66
2022/06/23 05:28:16;;;;;;;;;;;;;;;24.76;63.74;96637.63;4232864;28;5665;-67
2022/06/23 05:30:27;;;;;;;;;;;;;;;24.83;63.55;96641.59;4233740;27;5854;-66
2022/06/23 05:32:35;;;;;;;;;;;;;;;24.83;63.47;96638.91;4235724;27;5757;-66
2022/06/23 05:34:48;;;;;;;;;;;;;;;24.84;63.68;96645.94;4235763;28;5669;-66
2022/06/23 05:36:59;;;;;;;;;;;;;;;24.91;63.12;96640.16;4234957;28;5749;-66
2022/06/23 05:39:13;;;;;;;;;;;;;;;25.05;62.86;96643.03;4226331;28;5654;-66
2022/06/23 05:41:23;;;;;;;;;;;;;;;25.19;62.51;96641.22;4232247;28;5669;-66
2022/06/23 05:43:27;;;;;;;;;;;;;;;25.33;62.33;96635.88;4223241;28;5765;-67
2022/06/23 05:45:38;;;;;;;;;;;;;;;25.40;62.01;96639.84;4228846;28;5737;-66
2022/06/23 05:47:42;;;;;;;;;;;;;;;25.47;62.20;96640.28;4228409;27;5813;-66
2022/06/23 05:49:51;;;;;;;;;;;;;;;25.65;61.81;96646.00;4228257;28;5650;-67
2022/06/23 05:51:59;;;;;;;;;;;;;;;25.76;61.20;96647.47;4226729;28;5721;-66
2022/06/23 05:54:10;;;;;;;;;;;;;;;25.85;61.43;96656.56;4235826;28;5658;-66
2022/06/23 05:56:24;;;;;;;;;;;;;;;25.97;61.06;96637.94;4233835;27;5693;-68
2022/06/23 05:58:33;;;;;;;;;;;;;;;26.08;60.85;96644.81;4234029;28;5637;-67
2022/06/23 06:00:43;;;;;;;;;;;;;;;26.16;60.50;96646.03;4234711;28;5654;-67
2022/06/23 06:02:52;;;;;;;;;;;;;;;26.21;60.37;96645.94;4234401;28;5649;-68
2022/06/23 06:04:58;;;;;;;;;;;;;;;26.17;60.33;96641.44;4234782;27;5811;-67
2022/06/23 06:07:02;;;;;;;;;;;;;;;26.16;60.15;96639.81;4234952;27;5885;-67
2022/06/23 06:11:34;;;;;;;;;;;;;;;26.33;59.74;96645.47;4225541;28;7811;-67
2022/06/23 06:13:38;;;;;;;;;;;;;;;26.36;59.83;96651.13;4228848;28;5733;-67
2022/06/23 06:15:47;;;;;;;;;;;;;;;26.44;59.52;96644.22;4227288;27;5687;-67
2022/06/23 06:17:54;;;;;;;;;;;;;;;26.48;59.48;96647.94;4218424;28;5672;-68
2022/06/23 06:20:00;;;;;;;;;;;;;;;26.53;59.06;96647.88;4231358;28;5654;-68
2022/06/23 06:22:22;;;;;;;;;;;;;;;26.53;59.25;96647.88;4230434;28;5744;-67
2022/06/23 06:24:30;;;;;;;;;;;;;;;26.57;58.86;96651.59;4230633;28;5869;-68
2022/06/23 06:26:38;;;;;;;;;;;;;;;26.64;59.05;96656.63;4229257;28;5642;-69
2022/06/23 06:28:41;;;;;;;;;;;;;;;26.65;58.64;96650.91;4226918;27;5752;-68
2022/06/23 06:30:50;;;;;;;;;;;;;;;26.63;58.74;96644.97;4231841;28;6444;-68
2022/06/23 06:32:55;;;;;;;;;;;;;;;26.59;58.48;96643.94;4234187;27;6481;-68
2022/06/23 06:35:06;;;;;;;;;;;;;;;26.62;58.44;96643.38;4233026;27;5832;-68
2022/06/23 06:37:14;;;;;;;;;;;;;;;26.63;58.46;96638.75;4223492;28;5762;-67
2022/06/23 06:39:23;;;;;;;;;;;;;;;26.62;58.27;96627.09;4229927;27;5650;-68
2022/06/23 06:41:26;;;;;;;;;;;;;;;26.67;58.10;96626.19;4218689;27;5761;-68
2022/06/23 06:43:33;;;;;;;;;;;;;;;26.69;57.95;96613.94;4221129;28;5663;-73
2022/06/23 06:45:38;;;;;;;;;;;;;;;26.73;57.85;96611.44;4225076;28;5752;-69
2022/06/23 06:47:43;;;;;;;;;;;;;;;26.74;57.84;96604.91;4231870;28;7134;-69
2022/06/23 06:49:47;;;;;;;;;;;;;;;26.78;57.72;96607.81;4228216;27;5760;-71
2022/06/23 06:51:52;;;;;;;;;;;;;;;26.83;57.69;96602.28;4231177;27;5649;-68
2022/06/23 06:53:59;;;;;;;;;;;;;;;26.90;57.48;96597.25;4229542;27;5721;-72
2022/06/23 06:56:08;;;;;;;;;;;;;;;26.99;57.19;96598.16;4232661;27;5662;-65
2022/06/23 06:58:17;;;;;;;;;;;;;;;27.06;57.03;96595.06;4232039;27;5646;-66
2022/06/23 07:00:26;;;;;;;;;;;;;;;27.15;56.97;96595.97;4223059;27;5757;-67
2022/06/23 07:02:35;;;;;;;;;;;;;;;27.17;56.90;96597.25;4226402;28;5843;-66
2022/06/23 07:04:47;;;;;;;;;;;;;;;27.12;56.76;96591.94;4231073;28;5658;-67
2022/06/23 07:06:55;;;;;;;;;;;;;;;27.05;56.63;96591.53;4229522;28;5673;-68
2022/06/23 07:09:06;;;;;;;;;;;;;;;27.06;56.63;96590.44;4231597;28;5924;-64
2022/06/23 07:11:16;;;;;;;;;;;;;;;26.98;56.86;96591.94;4230672;28;5657;-67
2022/06/23 07:13:25;;;;;;;;;;;;;;;26.93;56.51;96596.66;4227852;28;7667;-71
2022/06/23 07:15:34;;;;;;;;;;;;;;;26.88;56.50;96588.63;4232382;27;5658;-69
2022/06/23 07:17:43;;;;;;;;;;;;;;;26.80;56.51;96586.63;4234113;28;5805;-65
2022/06/23 07:19:53;;;;;;;;;;;;;;;26.57;56.77;96589.22;4230712;27;5918;-66
2022/06/23 07:22:04;;;;;;;;;;;;;;;26.50;56.64;96591.53;4220523;28;5744;-68
2022/06/23 07:24:16;;;;;;;;;;;;;;;26.43;56.70;96587.63;4226770;28;5784;-72
2022/06/23 07:26:33;;;;;;;;;;;;;;;26.40;56.81;96592.53;4226332;28;5683;-67
2022/06/23 07:28:44;;;;;;;;;;;;;;;26.44;56.67;96592.72;4217353;28;5739;-70
2022/06/23 07:30:52;;;;;;;;;;;;;;;26.50;56.51;96599.66;4219987;28;5748;-66
2022/06/23 07:33:02;;;;;;;;;;;;;;;26.49;56.62;96594.53;4230074;28;5718;-72
2022/06/23 07:35:14;;;;;;;;;;;;;;;26.46;56.16;96595.16;4224615;28;5658;-67
2022/06/23 07:37:26;;;;;;;;;;;;;;;26.46;56.23;96590.53;4224813;28;5765;-67
2022/06/23 07:39:36;;;;;;;;;;;;;;;26.45;56.12;96591.63;4228132;28;5638;-69
2022/06/23 07:41:44;;;;;;;;;;;;;;;26.35;56.12;96589.06;4232940;28;5668;-72
2022/06/23 07:43:52;;;;;;;;;;;;;;;26.33;56.29;96591.28;4228624;28;5709;-70
2022/06/23 07:45:58;;;;;;;;;;;;;;;26.33;56.15;96591.28;4228575;28;7712;-66
2022/06/23 07:48:01;;;;;;;;;;;;;;;26.29;56.28;96590.28;4221802;28;5729;-66
2022/06/23 07:50:07;;;;;;;;;;;;;;;26.27;55.96;96597.88;4224121;28;5871;-67
2022/06/23 07:52:14;;;;;;;;;;;;;;;26.28;56.07;96597.63;4218874;28;6446;-68
2022/06/23 07:54:20;;;;;;;;;;;;;;;26.26;56.18;96597.09;4225911;28;5761;-67
2022/06/23 07:56:26;;;;;;;;;;;;;;;26.25;55.92;96600.91;4230874;27;6332;-70
2022/06/23 07:58:32;;;;;;;;;;;;;;;26.24;56.05;96598.50;4217800;27;5679;-71
2022/06/23 08:00:37;;;;;;;;;;;;;;;26.18;55.89;96595.06;4221179;28;5721;-69
2022/06/23 08:02:47;;;;;;;;;;;;;;;26.18;56.16;96596.97;4228095;28;5765;-69
2022/06/23 08:05:00;;;;;;;;;;;;;;;26.20;55.78;96589.34;4225580;28;5667;-69
2022/06/23 08:07:08;;;;;;;;;;;;;;;26.23;55.77;96586.03;4219583;28;5682;-70
2022/06/23 08:09:18;;;;;;;;;;;;;;;26.22;55.71;96584.44;4229713;28;6368;-70
2022/06/23 08:14:09;;;;;;;;;;;;;;;26.25;55.70;96573.78;4230453;28;5857;-69
2022/06/23 08:18:41;;;;;;;;;;;;;;;26.24;55.48;96574.91;4233149;28;5813;-74
2022/06/23 08:20:52;;;;;;;;;;;;;;;26.20;55.71;96578.53;4228556;28;5833;-71
2022/06/23 08:22:56;;;;;;;;;;;;;;;26.17;55.71;96581.84;4230296;27;5900;-69
2022/06/23 08:25:02;;;;;;;;;;;;;;;26.20;55.51;96567.69;4220814;28;5667;-69
2022/06/23 08:27:28;;;;;;;;;;;;;;;26.28;55.29;96567.00;4222605;28;5741;-66
2022/06/23 08:29:35;;;;;;;;;;;;;;;26.30;55.21;96564.78;4233787;27;5638;-67
2022/06/23 08:31:39;;;;;;;;;;;;;;;26.31;55.32;96558.28;4229670;27;5813;-68
2022/06/23 08:34:07;;;;;;;;;;;;;;;26.33;55.11;96562.28;4228712;28;5890;-67
2022/06/23 08:36:13;;;;;;;;;;;;;;;26.32;55.13;96568.00;4228296;28;6480;-69
2022/06/23 08:38:32;;;;;;;;;;;;;;;26.28;54.86;96558.88;4232372;28;5702;-69
2022/06/23 08:40:44;;;;;;;;;;;;;;;26.23;55.25;96556.25;4197696;28;5708;-67
2022/06/23 08:42:58;;;;;;;;;;;;;;;26.25;54.95;96560.25;4230218;28;5736;-65
2022/06/23 08:45:15;;;;;;;;;;;;;;;26.31;55.13;96550.13;4228495;28;5794;-70
2022/06/23 08:47:24;;;;;;;;;;;;;;;26.34;54.68;96550.34;4234308;28;5801;-67
2022/06/23 08:49:38;;;;;;;;;;;;;;;26.29;54.92;96549.63;4229599;28;5856;-70
2022/06/23 08:51:52;;;;;;;;;;;;;;;26.30;54.63;96543.91;4234381;28;5737;-68
2022/06/23 08:54:08;;;;;;;;;;;;;;;26.34;54.81;96541.41;4235417;28;5827;-68
2022/06/23 08:56:16;;;;;;;;;;;;;;;26.39;54.86;96546.78;4231639;28;5754;-67
2022/06/23 08:58:25;;;;;;;;;;;;;;;26.44;54.80;96538.53;4233041;28;5785;-68
2022/06/23 09:00:35;;;;;;;;;;;;;;;26.46;54.42;96541.75;4232020;27;5127;-69
2022/06/23 09:02:45;;;;;;;;;;;;;;;26.46;54.80;96547.16;4234734;28;5657;-69
2022/06/23 09:05:09;;;;;;;;;;;;;;;26.43;54.59;96550.47;4232802;27;5801;-70
2022/06/23 09:07:20;;;;;;;;;;;;;;;26.46;54.63;96554.50;4223314;28;5661;-68
2022/06/23 09:09:34;;;;;;;;;;;;;;;26.49;54.77;96551.16;4232929;27;5729;-69
2022/06/23 09:11:46;;;;;;;;;;;;;;;26.49;54.42;96551.16;4233458;28;5386;-69
2022/06/23 09:14:04;;;;;;;;;;;;;;;26.47;54.59;96556.91;4225393;28;5646;-69
2022/06/23 09:16:22;;;;;;;;;;;;;;;26.52;54.54;96551.38;4232354;28;5658;-71
2022/06/23 09:19:12;;;;;;;;;;;;;;;26.56;54.80;96554.28;4230125;28;5845;-73
2022/06/23 09:21:30;;;;;;;;;;;;;;;26.61;54.51;96549.56;4230857;28;5638;-74
2022/06/23 09:23:54;;;;;;;;;;;;;;;26.61;54.25;96544.13;4228303;28;6332;-72
2022/06/23 09:26:07;;;;;;;;;;;;;;;26.55;54.34;96544.56;4219644;28;5766;-72
2022/06/23 09:28:17;;;;;;;;;;;;;;;26.47;54.66;96543.34;4218231;28;5813;-69
2022/06/23 09:30:32;;;;;;;;;;;;;;;26.49;54.72;96537.63;4235530;27;5653;-68
2022/06/23 09:32:59;;;;;;;;;;;;;;;26.59;54.55;96537.41;4217687;28;5743;-65
2022/06/23 09:35:29;;;;;;;;;;;;;;;26.65;54.62;96528.88;4223894;28;5683;-71
2022/06/23 09:38:04;;;;;;;;;;;;;;;26.63;54.59;96530.31;4226564;28;5682;-76
2022/06/23 09:40:35;;;;;;;;;;;;;;;26.57;54.56;96521.47;4226687;28;5845;-74
2022/06/23 09:43:08;;;;;;;;;;;;;;;26.60;54.84;96514.63;4225656;28;5857;-72
2022/06/23 09:45:28;;;;;;;;;;;;;;;26.62;54.76;96517.84;4202345;28;5679;-77
2022/06/23 09:47:51;;;;;;;;;;;;;;;26.61;54.54;96506.19;4236064;27;5658;-74
2022/06/23 09:50:26;;;;;;;;;;;;;;;26.61;54.87;96511.59;4229892;28;5740;-77
2022/06/23 09:52:55;;;;;;;;;;;;;;;26.59;54.72;96504.88;4233941;28;5665;-73
2022/06/23 09:55:35;;;;;;;;;;;;;;;26.57;55.06;96507.91;4221863;28;5715;-70
2022/06/23 09:58:00;;;;;;;;;;;;;;;26.56;55.14;96509.00;4229571;28;5729;-72
2022/06/23 10:00:07;;;;;;;;;;;;;;;26.55;54.88;96504.69;4226839;28;5654;-74
2022/06/23 10:02:22;;;;;;;;;;;;;;;26.55;55.26;96501.19;4224546;28;5864;-72
2022/06/23 10:04:40;;;;;;;;;;;;;;;26.56;55.31;96509.00;4216534;28;5785;-74
2022/06/23 10:07:04;;;;;;;;;;;;;;;26.56;55.41;96503.59;4225239;28;5780;-73
2022/06/23 10:09:20;;;;;;;;;;;;;;;26.59;55.27;96502.19;4227665;28;5853;-68
2022/06/23 10:11:38;;;;;;;;;;;;;;;26.60;55.56;96503.78;4219076;28;5667;-70
2022/06/23 10:13:59;;;;;;;;;;;;;;;26.56;55.44;96503.59;4224732;28;5742;-69
2022/06/23 10:16:16;;;;;;;;;;;;;;;26.57;55.72;96494.34;4231959;28;5852;-67
2022/06/23 10:18:36;;;;;;;;;;;;;;;26.59;55.70;96485.91;4232061;28;5638;-73
2022/06/23 10:20:55;;;;;;;;;;;;;;;26.62;55.76;96488.84;4233727;28;5713;-75
2022/06/23 10:23:18;;;;;;;;;;;;;;;26.65;55.65;96480.09;4230359;28;5705;-72
2022/06/23 10:25:40;;;;;;;;;;;;;;;26.65;55.93;96480.09;4232840;27;5080;-72
2022/06/23 10:28:00;;;;;;;;;;;;;;;26.62;56.08;96472.56;4226232;28;5740;-72
2022/06/23 10:30:19;;;;;;;;;;;;;;;26.60;56.11;96463.91;4234169;28;5689;-73
2022/06/23 10:33:05;;;;;;;;;;;;;;;26.59;55.87;96459.59;4230748;28;5828;-71
2022/06/23 10:35:24;;;;;;;;;;;;;;;26.59;56.17;96458.81;4229838;28;5983;-71
2022/06/23 10:37:36;;;;;;;;;;;;;;;26.62;56.11;96464.44;4227502;28;5758;-73
2022/06/23 10:40:04;;;;;;;;;;;;;;;26.61;56.21;96460.09;4226611;28;5666;-72
2022/06/23 10:42:47;;;;;;;;;;;;;;;26.60;56.20;96461.19;4226534;28;5794;-72
2022/06/23 10:45:09;;;;;;;;;;;;;;;26.62;56.18;96458.22;4229267;28;6406;-72
2022/06/23 10:47:32;;;;;;;;;;;;;;;26.67;56.08;96467.03;4233589;27;5890;-72
2022/06/23 10:50:03;;;;;;;;;;;;;;;26.72;55.96;96457.97;4229674;28;5657;-70
2022/06/23 10:52:42;;;;;;;;;;;;;;;26.66;56.24;96438.31;4221515;28;5650;-72
2022/06/23 10:55:11;;;;;;;;;;;;;;;26.68;56.30;96435.28;4232871;27;5659;-72
2022/06/23 10:57:36;;;;;;;;;;;;;;;26.72;56.28;96432.75;4233312;28;5788;-71
2022/06/23 10:59:56;;;;;;;;;;;;;;;26.73;56.13;96437.06;4222499;28;5715;-71
2022/06/23 11:02:28;;;;;;;;;;;;;;;26.74;56.46;96428.66;4228021;28;5701;-72
2022/06/23 11:04:51;;;;;;;;;;;;;;;26.76;56.23;96414.78;4232807;27;5777;-71
2022/06/23 11:07:11;;;;;;;;;;;;;;;26.76;56.35;96421.03;4233013;27;5724;-72
2022/06/23 11:09:35;;;;;;;;;;;;;;;26.76;56.37;96425.63;4232859;28;5667;-70
2022/06/23 11:11:52;;;;;;;;;;;;;;;26.75;56.41;96418.63;4217981;28;5675;-71
2022/06/23 11:14:02;;;;;;;;;;;;;;;26.70;56.28;96420.31;4222431;28;7711;-72
2022/06/23 11:16:15;;;;;;;;;;;;;;;26.69;56.55;96418.72;4228320;28;5679;-71
2022/06/23 11:18:31;;;;;;;;;;;;;;;26.72;56.45;96414.59;4228546;28;5871;-72
2022/06/23 11:20:44;;;;;;;;;;;;;;;26.77;56.67;96405.56;4225818;27;5841;-71
2022/06/23 11:22:53;;;;;;;;;;;;;;;26.78;56.46;96401.72;4219297;28;5642;-73
2022/06/23 11:25:07;;;;;;;;;;;;;;;26.79;56.46;96392.47;4233285;28;5688;-70
2022/06/23 11:27:18;;;;;;;;;;;;;;;26.83;56.38;96390.75;4217966;28;5661;-68
2022/06/23 11:29:37;;;;;;;;;;;;;;;26.80;56.52;96394.09;4222345;28;5646;-71
2022/06/23 11:31:57;;;;;;;;;;;;;;;26.80;56.58;96389.47;4226720;28;5742;-72
2022/06/23 11:34:21;;;;;;;;;;;;;;;26.83;56.59;96379.91;4226831;28;5697;-73
2022/06/23 11:36:35;;;;;;;;;;;;;;;26.86;56.28;96365.75;4223443;28;5768;-71
2022/06/23 11:39:11;;;;;;;;;;;;;;;26.90;56.42;96362.09;4223628;28;6428;-71
2022/06/23 11:41:33;;;;;;;;;;;;;;;26.92;56.39;96359.88;4229110;28;5667;-71
2022/06/23 11:43:51;;;;;;;;;;;;;;;26.94;56.53;96357.66;4226498;28;5657;-70
2022/06/23 11:46:06;;;;;;;;;;;;;;;26.98;56.35;96368.72;4230099;28;5642;-70
2022/06/23 11:48:21;;;;;;;;;;;;;;;26.98;56.45;96368.72;4230769;28;5658;-73
2022/06/23 11:50:36;;;;;;;;;;;;;;;26.99;56.55;96375.72;4227397;28;5848;-72
2022/06/23 11:52:59;;;;;;;;;;;;;;;26.99;56.41;96370.31;4223889;27;5853;-69
2022/06/23 11:55:29;;;;;;;;;;;;;;;27.01;56.41;96354.53;4225835;28;5764;-72
2022/06/23 11:57:56;;;;;;;;;;;;;;;27.03;56.34;96355.03;4227824;28;5815;-71
2022/06/23 12:00:05;;;;;;;;;;;;;;;27.05;56.35;96355.53;4224932;28;5548;-70
2022/06/23 12:02:28;;;;;;;;;;;;;;;27.09;56.19;96356.53;4227247;28;5654;-71
2022/06/23 12:04:45;;;;;;;;;;;;;;;27.14;56.11;96353.69;4227484;28;5862;-70
2022/06/23 12:07:01;;;;;;;;;;;;;;;27.20;55.96;96349.75;4232665;28;5642;-71
2022/06/23 12:09:15;;;;;;;;;;;;;;;27.31;55.82;96352.19;4225438;28;5810;-70
2022/06/23 12:11:18;;;;;;;;;;;;;;;27.40;55.76;96353.00;4229445;28;5763;-72
2022/06/23 12:13:23;;;;;;;;;;;;;;;27.49;55.60;96356.59;4229342;28;6509;-73
2022/06/23 12:15:30;;;;;;;;;;;;;;;27.53;55.52;96352.16;4230043;28;5789;-71
2022/06/23 12:17:37;;;;;;;;;;;;;;;27.58;55.62;96351.19;4225756;28;5646;-73
2022/06/23 12:19:48;;;;;;;;;;;;;;;27.58;55.45;96343.84;4224253;28;5669;-68
2022/06/23 12:21:58;;;;;;;;;;;;;;;27.59;55.44;96350.88;4220394;27;5869;-71
2022/06/23 12:24:10;;;;;;;;;;;;;;;27.55;55.53;96337.16;4224130;28;5434;-75
2022/06/23 12:26:20;;;;;;;;;;;;;;;27.53;55.58;96342.09;4224045;28;5574;-74
2022/06/23 12:28:34;;;;;;;;;;;;;;;27.52;55.59;96347.81;4226041;28;5085;-80
2022/06/23 12:30:46;;;;;;;;;;;;;;;27.54;55.63;96348.31;4245739;28;5789;-79
2022/06/23 12:32:56;;;;;;;;;;;;;;;27.60;55.57;96348.97;4249907;28;5504;-80
2022/06/23 12:35:08;;;;;;;;;;;;;;;27.65;55.60;96344.25;4231859;28;5691;-75
2022/06/23 12:37:23;;;;;;;;;;;;;;;27.70;55.46;96352.25;4231233;28;5831;-77
2022/06/23 12:39:36;;;;;;;;;;;;;;;27.72;55.45;96349.22;4232346;28;5800;-73
2022/06/23 12:41:47;;;;;;;;;;;;;;;27.64;55.62;96347.25;4231451;28;5784;-77
2022/06/23 12:43:56;;;;;;;;;;;;;;;27.63;55.48;96338.28;4235456;28;5662;-80
2022/06/23 12:46:06;;;;;;;;;;;;;;;27.64;55.61;96326.31;4236532;28;5588;-78
2022/06/23 12:48:29;;;;;;;;;;;;;;;27.65;55.77;96332.59;4228412;28;5668;-80
2022/06/23 12:50:47;;;;;;;;;;;;;;;27.68;55.71;96329.25;4237907;27;5743;-81
2022/06/23 12:53:05;;;;;;;;;;;;;;;27.68;55.68;96331.94;4239594;28;5635;-77
2022/06/23 12:55:28;;;;;;;;;;;;;;;27.68;55.72;96323.81;4234855;27;5911;-83
2022/06/23 12:57:52;;;;;;;;;;;;;;;27.65;55.96;96317.09;4236764;28;5761;-82
2022/06/23 13:00:05;;;;;;;;;;;;;;;27.66;55.90;96317.88;4240635;28;5658;-83
2022/06/23 13:02:17;;;;;;;;;;;;;;;27.65;55.94;96316.28;4243157;28;5748;-75
2022/06/23 13:04:33;;;;;;;;;;;;;;;27.64;55.78;96322.81;4236702;28;5744;-79
2022/06/23 13:06:43;;;;;;;;;;;;;;;27.60;55.80;96316.38;4242317;28;5809;-80
2022/06/23 13:08:59;;;;;;;;;;;;;;;27.56;55.91;96322.44;4237934;28;5770;-72
2022/06/23 13:11:11;;;;;;;;;;;;;;;27.59;55.93;96312.88;4242076;28;7089;-78
2022/06/23 13:13:20;;;;;;;;;;;;;;;27.64;55.90;96314.66;4231321;27;5796;-76
2022/06/23 13:15:35;;;;;;;;;;;;;;;27.68;55.83;96312.94;4228666;28;5108;-79
2022/06/23 13:17:45;;;;;;;;;;;;;;;27.65;55.64;96317.09;4237459;28;5691;-79
2022/06/23 13:19:56;;;;;;;;;;;;;;;27.69;55.72;96317.25;4233313;28;7691;-82
2022/06/23 13:22:11;;;;;;;;;;;;;;;27.70;55.64;96316.94;4231598;28;5654;-77
2022/06/23 13:24:19;;;;;;;;;;;;;;;27.70;55.68;96311.50;4229845;28;5782;-78
2022/06/23 13:26:25;;;;;;;;;;;;;;;27.72;55.83;96317.41;4231562;27;5805;-72
2022/06/23 13:28:32;;;;;;;;;;;;;;;27.74;55.89;96304.31;4225754;28;5730;-79
2022/06/23 13:30:44;;;;;;;;;;;;;;;27.78;55.68;96312.66;4231349;28;5654;-76
2022/06/23 13:32:58;;;;;;;;;;;;;;;27.80;55.58;96316.66;4227728;28;5721;-75
2022/06/23 13:35:13;;;;;;;;;;;;;;;27.85;55.63;96310.25;4226768;28;5750;-77
2022/06/23 13:37:21;;;;;;;;;;;;;;;27.92;55.50;96309.81;4224274;28;5778;-76
2022/06/23 13:39:32;;;;;;;;;;;;;;;27.94;55.52;96302.94;4224528;28;5893;-83
2022/06/23 13:41:41;;;;;;;;;;;;;;;27.96;55.39;96289.03;4238035;28;5764;-76
2022/06/23 13:43:53;;;;;;;;;;;;;;;28.01;55.33;96278.03;4230802;27;5735;-71
2022/06/23 13:46:02;;;;;;;;;;;;;;;28.03;55.27;96273.09;4222003;28;5754;-73
2022/06/23 13:48:13;;;;;;;;;;;;;;;28.02;55.30;96258.69;4224918;28;5841;-71
2022/06/23 13:50:24;;;;;;;;;;;;;;;28.03;55.26;96245.91;4227779;28;5654;-77
2022/06/23 13:52:33;;;;;;;;;;;;;;;28.02;55.32;96233.44;4233588;28;5881;-78
2022/06/23 13:54:46;;;;;;;;;;;;;;;28.01;55.43;96231.84;4228416;28;5724;-78
2022/06/23 13:57:00;;;;;;;;;;;;;;;28.00;55.21;96238.41;4232436;28;6336;-76
2022/06/23 13:59:09;;;;;;;;;;;;;;;28.00;55.22;96241.91;4225748;28;5649;-75
2022/06/23 14:01:19;;;;;;;;;;;;;;;28.01;55.41;96240.00;4236648;28;6394;-80
2022/06/23 14:03:39;;;;;;;;;;;;;;;28.03;55.24;96237.75;4225560;28;6536;-75
2022/06/23 14:05:47;;;;;;;;;;;;;;;28.01;55.26;96238.09;4222792;28;7807;-75
2022/06/23 14:07:59;;;;;;;;;;;;;;;28.00;55.20;96241.91;4233773;28;5642;-81
2022/06/23 14:10:11;;;;;;;;;;;;;;;28.00;55.45;96246.56;4245142;28;5635;-78
2022/06/23 14:12:21;;;;;;;;;;;;;;;28.02;55.41;96245.13;4240796;27;5803;-79
2022/06/23 14:14:30;;;;;;;;;;;;;;;28.02;55.42;96244.31;4238826;28;5937;-80
2022/06/23 14:16:38;;;;;;;;;;;;;;;28.00;55.48;96235.69;4237864;28;5729;-79
2022/06/23 14:18:50;;;;;;;;;;;;;;;28.04;55.48;96242.06;4240492;28;5675;-77
2022/06/23 14:21:02;;;;;;;;;;;;;;;28.03;55.42;96233.13;4225450;28;5692;-75
2022/06/23 14:23:13;;;;;;;;;;;;;;;28.00;54.98;96231.06;4217753;28;5861;-75
2022/06/23 14:25:24;;;;;;;;;;;;;;;28.01;54.87;96229.94;4226894;28;5781;-75
2022/06/23 14:27:33;;;;;;;;;;;;;;;28.00;54.75;96225.63;4227785;27;5785;-74
2022/06/23 14:29:43;;;;;;;;;;;;;;;27.99;54.52;96223.22;4229341;28;5111;-78
2022/06/23 14:31:51;;;;;;;;;;;;;;;27.99;54.49;96212.38;4225864;28;5724;-70
2022/06/23 14:34:01;;;;;;;;;;;;;;;28.00;53.95;96203.88;4222222;28;5741;-68
2022/06/23 14:36:08;;;;;;;;;;;;;;;28.03;53.71;96191.56;4225737;28;5074;-73
2022/06/23 14:38:16;;;;;;;;;;;;;;;28.05;53.26;96189.34;4219584;28;5814;-72
2022/06/23 14:40:29;;;;;;;;;;;;;;;28.06;53.22;96175.44;4225594;28;5729;-78
2022/06/23 14:43:04;;;;;;;;;;;;;;;28.05;52.61;96173.03;4232863;28;5714;-72
2022/06/23 14:45:30;;;;;;;;;;;;;;;28.07;52.61;96166.16;4224993;28;5649;-72
2022/06/23 14:47:50;;;;;;;;;;;;;;;28.08;52.15;96166.94;4219816;28;5852;-74
2022/06/23 14:50:20;;;;;;;;;;;;;;;28.09;51.78;96165.88;4223718;28;5729;-73
2022/06/23 14:52:32;;;;;;;;;;;;;;;28.12;51.24;96167.94;4225243;28;5866;-71
2022/06/23 14:54:43;;;;;;;;;;;;;;;28.16;50.91;96163.44;4221378;28;5883;-73
2022/06/23 14:56:53;;;;;;;;;;;;;;;28.21;50.72;96174.16;4223077;28;5717;-72
2022/06/23 14:59:04;;;;;;;;;;;;;;;28.23;50.38;96152.91;4225209;28;6090;-71
2022/06/23 15:01:12;;;;;;;;;;;;;;;28.27;50.14;96150.31;4227111;27;5762;-70
2022/06/23 15:03:28;;;;;;;;;;;;;;;28.30;50.00;96155.94;4230161;28;5861;-73
2022/06/23 15:05:38;;;;;;;;;;;;;;;28.30;49.85;96158.66;4226251;28;5821;-73
2022/06/23 15:07:49;;;;;;;;;;;;;;;28.31;49.65;96182.00;4222333;28;5753;-72
2022/06/23 15:09:59;;;;;;;;;;;;;;;28.31;49.54;96189.34;4223307;28;5848;-71
2022/06/23 15:12:15;;;;;;;;;;;;;;;28.30;49.46;96198.63;4227834;28;6617;-73
2022/06/23 15:14:24;;;;;;;;;;;;;;;28.27;49.34;96196.53;4228381;28;6799;-73
2022/06/23 15:16:32;;;;;;;;;;;;;;;28.24;49.37;96192.53;4233349;27;5661;-73
2022/06/23 15:18:44;;;;;;;;;;;;;;;28.21;49.48;96198.63;4230824;28;5115;-73
2022/06/23 15:20:55;;;;;;;;;;;;;;;28.17;49.44;96200.34;4230173;27;5698;-70
2022/06/23 15:23:10;;;;;;;;;;;;;;;28.14;49.60;96214.59;4220738;28;6010;-70
2022/06/23 15:25:24;;;;;;;;;;;;;;;28.12;49.66;96233.13;4231551;28;5799;-72
2022/06/23 15:27:39;;;;;;;;;;;;;;;28.09;49.70;96245.47;4225003;28;5108;-70
2022/06/23 15:29:48;;;;;;;;;;;;;;;28.08;49.99;96270.19;4230867;27;6072;-70
2022/06/23 15:32:00;;;;;;;;;;;;;;;28.07;50.23;96299.28;4230702;28;5256;-71
2022/06/23 15:34:10;;;;;;;;;;;;;;;28.01;50.58;96373.13;4231511;28;5856;-70
2022/06/23 15:36:32;;;;;;;;;;;;;;;27.88;51.03;96388.44;4235045;28;5748;-74
2022/06/23 15:38:45;;;;;;;;;;;;;;;27.64;51.47;96391.50;4240343;28;5512;-79
2022/06/23 15:40:53;;;;;;;;;;;;;;;27.40;52.10;96391.03;4243163;28;5555;-82